Time;durP1;ratioP1;P1;durP2;ratioP2;P2;SDS_P1;SDS_P2;PMS_P1;PMS_P2;Temp;Humidity;BMP_temperature;BMP_pressure;BME280_temperature;BME280_humidity;BME280_pressure;Samples;Min_cycle;Max_cycle;Signal;HPM_P1;HPM_P2
2021/03/11 00:02:19;;;;;;;9.52;5.88;;;;;;;7.03;50.24;100045.13;8005356;28;20565;-67
2021/03/11 00:06:10;;;;;;;10.02;5.38;;;;;;;7.04;50.56;100046.81;8006083;28;20025;-67
2021/03/11 00:10:00;;;;;;;9.80;5.90;;;;;;;7.04;50.70;100038.97;7999135;28;20158;-67
2021/03/11 00:13:51;;;;;;;7.10;4.90;;;;;;;7.03;50.72;100032.06;7999489;28;20080;-67
2021/03/11 00:17:42;;;;;;;8.43;4.60;;;;;;;7.06;50.62;100036.25;8004364;28;20123;-67
2021/03/11 00:21:33;;;;;;;7.15;4.78;;;;;;;7.08;50.58;100039.59;7995361;28;20033;-67
2021/03/11 00:25:25;;;;;;;8.90;4.57;;;;;;;7.08;50.71;100023.94;7998439;28;20113;-67
2021/03/11 00:29:17;;;;;;;8.10;5.30;;;;;;;7.08;50.95;100022.16;7998253;28;20033;-67
2021/03/11 00:33:07;;;;;;;7.32;4.68;;;;;;;7.09;51.04;100020.41;8000257;28;20034;-67
2021/03/11 00:36:58;;;;;;;6.82;4.25;;;;;;;7.08;50.87;100006.50;7998691;28;20041;-67
2021/03/11 00:40:48;;;;;;;8.32;4.15;;;;;;;7.07;51.21;100010.03;8001292;28;20045;-67
2021/03/11 00:44:39;;;;;;;8.40;4.40;;;;;;;7.08;51.18;100008.25;8002325;28;20039;-67
2021/03/11 00:48:30;;;;;;;7.00;4.55;;;;;;;7.09;51.02;99994.28;8002985;28;20033;-67
2021/03/11 00:52:22;;;;;;;5.57;3.75;;;;;;;7.11;51.15;99989.78;7999058;28;20378;-67
2021/03/11 00:56:12;;;;;;;7.20;4.13;;;;;;;7.11;51.19;99997.63;7992005;28;20112;-67
2021/03/11 01:00:09;;;;;;;6.03;4.35;;;;;;;7.08;50.98;99983.00;7991346;28;20029;-67
2021/03/11 01:04:15;;;;;;;5.80;4.15;;;;;;;7.07;51.07;99981.31;8011599;28;21934;-67
2021/03/11 01:08:06;;;;;;;7.32;4.13;;;;;;;7.10;51.32;99962.81;7997707;28;20025;-67
2021/03/11 01:11:57;;;;;;;9.18;4.68;;;;;;;7.12;51.36;99960.13;7996478;28;20045;-67
2021/03/11 01:15:47;;;;;;;4.70;3.20;;;;;;;7.10;51.21;99954.97;7998732;28;20121;-67
2021/03/11 01:19:38;;;;;;;6.80;3.97;;;;;;;7.11;51.19;99934.94;8000042;28;20108;-67
2021/03/11 01:23:29;;;;;;;5.95;3.40;;;;;;;7.11;51.20;99933.16;8001725;28;21094;-67
2021/03/11 01:27:19;;;;;;;5.20;3.20;;;;;;;7.08;51.25;99906.41;8001278;28;20432;-67
2021/03/11 01:31:10;;;;;;;4.78;3.10;;;;;;;7.08;51.27;99906.41;8003933;28;20468;-67
2021/03/11 01:35:01;;;;;;;4.10;2.92;;;;;;;7.11;51.25;99907.03;7994827;28;20033;-67
2021/03/11 01:38:51;;;;;;;7.88;2.78;;;;;;;7.11;51.37;99898.38;7998890;28;20029;-67
2021/03/11 01:42:42;;;;;;;4.55;2.55;;;;;;;7.09;51.55;99888.03;7993733;28;20166;-68
2021/03/11 01:46:33;;;;;;;3.88;2.47;;;;;;;7.11;51.38;99882.69;7985316;28;20091;-67
2021/03/11 01:50:24;;;;;;;4.35;2.65;;;;;;;7.14;51.34;99864.19;7993462;28;20131;-67
2021/03/11 01:54:16;;;;;;;3.42;2.30;;;;;;;7.14;51.53;99844.16;8001771;28;20033;-67
2021/03/11 01:58:07;;;;;;;2.80;1.95;;;;;;;7.13;51.52;99839.03;8001344;28;20032;-67
2021/03/11 02:01:59;;;;;;;4.20;2.50;;;;;;;7.12;51.74;99832.13;8006806;28;20041;-67
2021/03/11 02:05:50;;;;;;;3.08;2.17;;;;;;;7.14;51.54;99828.47;8006765;28;20033;-67
2021/03/11 02:09:40;;;;;;;6.80;2.17;;;;;;;7.13;51.84;99818.16;8008404;28;20119;-67
2021/03/11 02:13:51;;;;;;;2.35;1.95;;;;;;;7.13;51.68;99800.72;8011132;28;20123;-67
2021/03/11 02:17:59;;;;;;;3.55;2.25;;;;;;;7.13;51.69;99777.19;8009479;28;20117;-67
2021/03/11 02:22:42;;;;;;;3.17;2.05;;;;;;;7.13;51.63;99758.91;7997538;28;20048;-67
2021/03/11 02:27:03;;;;;;;2.88;2.00;;;;;;;7.15;51.74;99756.19;7966505;28;20084;-67
2021/03/11 02:30:56;;;;;;;2.30;1.80;;;;;;;7.11;51.77;99747.72;7978533;28;20068;-67
2021/03/11 02:34:51;;;;;;;2.45;2.05;;;;;;;7.18;51.97;99745.50;8000213;28;20497;-67
2021/03/11 02:38:44;;;;;;;2.33;1.90;;;;;;;7.16;51.84;99727.34;8002793;28;20033;-67
2021/03/11 02:42:37;;;;;;;2.60;1.95;;;;;;;7.21;52.02;99714.81;8003607;28;20548;-68
2021/03/11 02:46:28;;;;;;;2.55;1.90;;;;;;;7.21;51.75;99719.22;7998510;28;20068;-67
2021/03/11 02:50:20;;;;;;;1.88;1.50;;;;;;;7.23;52.02;99714.69;8007875;28;20037;-67
2021/03/11 02:54:11;;;;;;;2.38;1.60;;;;;;;7.24;52.00;99706.75;8007368;28;20029;-67
2021/03/11 02:58:03;;;;;;;2.20;1.60;;;;;;;7.24;52.19;99704.16;8005462;28;20444;-67
2021/03/11 03:01:54;;;;;;;2.35;1.67;;;;;;;7.21;52.15;99696.53;7993667;28;20386;-67
2021/03/11 03:05:45;;;;;;;2.42;1.60;;;;;;;7.25;52.36;99686.69;7994446;28;20486;-67
2021/03/11 03:09:38;;;;;;;2.55;1.58;;;;;;;7.27;51.93;99669.97;7997604;28;20723;-67
2021/03/11 03:13:29;;;;;;;2.42;1.55;;;;;;;7.28;52.21;99663.81;8000734;28;20048;-67
2021/03/11 03:17:21;;;;;;;1.73;1.35;;;;;;;7.29;52.19;99665.47;8017849;28;20042;-67
2021/03/11 03:21:12;;;;;;;3.67;1.50;;;;;;;7.28;52.56;99662.97;8003344;28;20044;-67
2021/03/11 03:25:08;;;;;;;1.33;1.17;;;;;;;7.26;52.28;99670.91;8002630;28;20029;-67
2021/03/11 03:28:58;;;;;;;2.13;1.80;;;;;;;7.32;52.09;99672.25;8001212;28;20025;-67
2021/03/11 03:32:51;;;;;;;2.22;1.77;;;;;;;7.31;52.42;99663.56;8004266;28;20037;-67
2021/03/11 03:36:42;;;;;;;1.63;1.50;;;;;;;7.31;52.21;99658.34;8006211;28;20029;-67
2021/03/11 03:40:33;;;;;;;2.88;1.60;;;;;;;7.30;52.35;99643.59;8008874;28;20132;-67
2021/03/11 03:44:28;;;;;;;3.38;1.60;;;;;;;7.33;52.25;99638.19;8008066;28;20029;-67
2021/03/11 03:48:26;;;;;;;3.83;2.05;;;;;;;7.30;52.59;99627.13;8002830;28;20087;-67
2021/03/11 03:52:18;;;;;;;2.40;1.75;;;;;;;7.30;52.31;99614.06;8003730;28;20044;-67
2021/03/11 03:56:35;;;;;;;2.80;1.80;;;;;;;7.30;52.38;99612.25;8004481;28;20521;-67
2021/03/11 04:00:25;;;;;;;3.20;1.83;;;;;;;7.30;52.55;99607.03;7995351;28;20531;-67
2021/03/11 04:04:18;;;;;;;2.67;1.90;;;;;;;7.29;52.53;99599.34;8007549;28;20033;-67
2021/03/11 04:08:09;;;;;;;2.70;1.67;;;;;;;7.32;52.70;99586.03;7986171;28;20025;-67
2021/03/11 04:12:01;;;;;;;3.17;2.10;;;;;;;7.30;52.41;99580.09;7994810;28;20492;-67
2021/03/11 04:15:51;;;;;;;2.70;1.63;;;;;;;7.31;52.81;99576.53;7995675;28;20144;-67
2021/03/11 04:19:43;;;;;;;2.92;2.20;;;;;;;7.31;52.74;99560.84;7995679;28;20405;-67
2021/03/11 04:23:36;;;;;;;2.67;1.77;;;;;;;7.32;53.04;99557.31;7997653;28;20048;-67
2021/03/11 04:27:27;;;;;;;2.40;1.70;;;;;;;7.31;52.72;99539.94;7994829;28;20072;-67
2021/03/11 04:31:19;;;;;;;2.13;1.67;;;;;;;7.34;52.83;99551.00;7998781;28;20563;-67
2021/03/11 04:35:10;;;;;;;2.55;1.60;;;;;;;7.38;52.80;99536.78;8001040;28;20716;-67
2021/03/11 04:39:03;;;;;;;2.42;1.67;;;;;;;7.39;53.27;99535.00;8001805;28;20037;-67
2021/03/11 04:42:54;;;;;;;2.05;1.65;;;;;;;7.40;52.70;99526.22;8004674;28;20034;-67
2021/03/11 04:46:44;;;;;;;1.70;1.45;;;;;;;7.43;52.93;99520.75;8004272;28;20044;-67
2021/03/11 04:50:38;;;;;;;2.17;1.52;;;;;;;7.44;52.95;99506.75;8005726;28;20047;-67
2021/03/11 04:54:29;;;;;;;2.35;1.65;;;;;;;7.43;52.99;99521.59;7997916;28;20735;-67
2021/03/11 04:58:20;;;;;;;2.42;1.77;;;;;;;7.46;53.15;99497.03;7988217;28;20036;-67
2021/03/11 05:02:11;;;;;;;2.42;1.75;;;;;;;7.52;53.04;99527.09;7989521;28;20038;-67
2021/03/11 05:06:03;;;;;;;2.47;1.90;;;;;;;7.53;53.44;99487.78;7973879;28;20112;-67
2021/03/11 05:09:53;;;;;;;2.30;1.70;;;;;;;7.57;53.16;99480.53;7995476;28;20441;-67
2021/03/11 05:13:44;;;;;;;1.73;1.58;;;;;;;7.58;53.07;99487.44;7979815;28;20120;-67
2021/03/11 05:17:34;;;;;;;6.30;1.65;;;;;;;7.60;53.72;99495.97;8002981;28;20038;-67
2021/03/11 05:21:25;;;;;;;2.05;1.65;;;;;;;7.60;53.47;99496.81;8001094;28;20460;-67
2021/03/11 05:25:16;;;;;;;2.33;1.77;;;;;;;7.55;53.80;99487.69;8018386;28;20513;-67
2021/03/11 05:29:06;;;;;;;2.65;1.65;;;;;;;7.59;53.68;99460.38;8002570;28;20035;-67
2021/03/11 05:32:57;;;;;;;2.47;1.77;;;;;;;7.57;53.84;99467.47;8010130;28;20593;-67
2021/03/11 05:36:47;;;;;;;2.95;2.05;;;;;;;7.60;53.74;99478.53;8002858;28;20124;-67
2021/03/11 05:40:38;;;;;;;3.03;1.85;;;;;;;7.62;53.75;99479.25;7997147;28;20116;-67
2021/03/11 05:44:30;;;;;;;2.45;1.98;;;;;;;7.61;54.14;99455.84;7999632;28;20033;-67
2021/03/11 05:48:23;;;;;;;2.47;1.80;;;;;;;7.61;54.22;99454.06;8001422;28;20087;-67
2021/03/11 05:52:13;;;;;;;3.38;2.10;;;;;;;7.65;54.13;99449.44;8007088;28;20377;-67
2021/03/11 05:56:05;;;;;;;2.88;1.90;;;;;;;7.63;54.39;99444.31;8005078;28;20495;-67
2021/03/11 05:59:57;;;;;;;1.70;1.58;;;;;;;7.67;54.40;99447.53;8006080;28;20036;-67
2021/03/11 06:03:48;;;;;;;2.25;1.60;;;;;;;7.72;54.73;99434.94;8005099;28;20036;-67
2021/03/11 06:07:43;;;;;;;2.28;1.73;;;;;;;7.69;54.56;99437.78;8007244;28;20037;-67
2021/03/11 06:11:35;;;;;;;2.03;1.70;;;;;;;7.74;54.34;99441.72;8007274;28;20047;-67
2021/03/11 06:15:35;;;;;;;4.90;1.55;;;;;;;7.81;54.53;99447.31;8002596;28;20044;-67
2021/03/11 06:19:27;;;;;;;2.85;1.90;;;;;;;7.84;54.55;99437.44;7999091;28;20021;-67
2021/03/11 06:23:18;;;;;;;2.30;1.70;;;;;;;7.88;54.68;99425.78;7998252;28;20037;-67
2021/03/11 06:27:08;;;;;;;2.90;1.67;;;;;;;7.92;54.66;99429.84;8001632;28;20032;-67
2021/03/11 06:31:18;;;;;;;3.75;1.60;;;;;;;7.94;54.46;99419.25;8013839;28;20132;-67
2021/03/11 06:35:18;;;;;;;2.88;2.05;;;;;;;7.98;54.81;99412.84;8001903;28;20048;-67
2021/03/11 06:39:26;;;;;;;2.63;1.85;;;;;;;8.01;54.64;99411.75;7992766;28;20488;-67
2021/03/11 06:43:17;;;;;;;1.98;1.73;;;;;;;8.03;54.50;99421.16;8005067;28;20031;-67
2021/03/11 06:47:17;;;;;;;3.58;1.75;;;;;;;8.08;54.74;99399.88;8004564;28;20033;-67
2021/03/11 06:51:17;;;;;;;3.30;2.15;;;;;;;8.12;54.60;99399.56;7996781;28;20037;-67
2021/03/11 06:55:10;;;;;;;3.22;2.00;;;;;;;8.13;54.64;99398.59;8000531;28;20091;-67
2021/03/11 06:59:05;;;;;;;3.45;2.00;;;;;;;8.21;54.96;99395.38;7996005;28;20059;-67
2021/03/11 07:02:57;;;;;;;2.83;2.45;;;;;;;8.25;55.06;99396.81;7999680;28;20049;-67
2021/03/11 07:06:54;;;;;;;2.67;1.98;;;;;;;8.28;54.74;99388.72;8000232;28;20609;-67
2021/03/11 07:10:46;;;;;;;2.88;1.90;;;;;;;8.31;55.06;99381.44;7999979;28;20681;-67
2021/03/11 07:14:37;;;;;;;3.53;1.95;;;;;;;8.35;55.29;99376.78;8003948;28;20060;-67
2021/03/11 07:18:28;;;;;;;2.15;1.75;;;;;;;8.37;55.30;99357.41;8007722;28;20444;-67
2021/03/11 07:22:19;;;;;;;2.67;1.90;;;;;;;8.42;55.29;99372.72;8007211;28;20556;-67
2021/03/11 07:26:10;;;;;;;2.70;2.00;;;;;;;8.49;55.11;99371.28;8007508;28;20025;-67
2021/03/11 07:30:02;;;;;;;5.00;2.10;;;;;;;8.55;55.24;99377.78;7994675;28;20041;-67
2021/03/11 07:33:54;;;;;;;2.60;1.90;;;;;;;8.62;55.27;99348.41;7994669;28;20048;-67
2021/03/11 07:37:49;;;;;;;3.05;2.10;;;;;;;8.82;55.14;99349.38;7997089;28;20084;-67
2021/03/11 07:41:40;;;;;;;2.85;1.88;;;;;;;9.19;55.21;99334.88;7978860;28;20040;-67
2021/03/11 07:45:31;;;;;;;2.92;2.33;;;;;;;10.18;56.10;99344.63;7998169;28;20039;-67
2021/03/11 07:49:22;;;;;;;3.13;1.98;;;;;;;10.62;55.44;99345.94;7986516;28;20025;-68
2021/03/11 07:53:13;;;;;;;4.68;1.95;;;;;;;10.69;54.75;99334.75;8003171;28;20028;-68
2021/03/11 07:57:04;;;;;;;2.70;1.60;;;;;;;10.66;54.49;99328.94;8002392;28;20405;-68
2021/03/11 08:00:54;;;;;;;3.22;1.60;;;;;;;10.62;54.18;99330.19;8004589;28;20034;-67
2021/03/11 08:04:46;;;;;;;2.05;1.30;;;;;;;10.62;54.16;99319.69;7997539;28;20383;-68
2021/03/11 08:08:41;;;;;;;2.33;1.73;;;;;;;10.56;53.94;99292.22;7972378;28;20041;-68
2021/03/11 08:12:40;;;;;;;2.88;1.45;;;;;;;10.53;53.95;99329.22;7993795;28;20040;-68
2021/03/11 08:16:30;;;;;;;3.70;1.50;;;;;;;10.44;53.87;99321.31;7999164;28;20040;-67
2021/03/11 08:20:24;;;;;;;2.00;1.60;;;;;;;10.40;53.83;99315.53;8007020;28;20029;-68
2021/03/11 08:24:40;;;;;;;3.15;1.52;;;;;;;10.38;53.85;99324.50;7999160;28;20045;-67
2021/03/11 08:28:30;;;;;;;2.28;1.70;;;;;;;10.33;53.69;99269.78;7993678;28;20504;-67
2021/03/11 08:32:45;;;;;;;3.92;1.58;;;;;;;10.27;53.65;99280.84;8001426;28;20064;-67
2021/03/11 08:36:38;;;;;;;7.13;1.73;;;;;;;10.21;53.72;99300.59;7998285;28;20102;-68
2021/03/11 08:40:41;;;;;;;3.83;1.20;;;;;;;10.15;53.51;99297.69;8005157;28;20078;-68
2021/03/11 08:44:43;;;;;;;2.92;1.30;;;;;;;10.04;53.47;99303.03;7998383;28;20183;-67
2021/03/11 08:49:04;;;;;;;1.88;1.17;;;;;;;9.92;53.70;99302.31;7999436;28;20055;-68
2021/03/11 08:52:54;;;;;;;5.90;1.20;;;;;;;9.86;53.71;99291.56;7988411;28;20079;-68
2021/03/11 08:56:45;;;;;;;5.05;1.80;;;;;;;9.76;53.80;99300.22;7999652;28;20108;-68
2021/03/11 09:01:00;;;;;;;5.30;1.45;;;;;;;9.72;53.69;99308.50;7996039;28;20120;-67
2021/03/11 09:04:51;;;;;;;5.80;1.55;;;;;;;9.65;53.63;99316.06;7992532;28;20084;-68
2021/03/11 09:08:52;;;;;;;7.63;1.33;;;;;;;9.59;53.80;99308.72;7995482;28;20460;-67
2021/03/11 09:12:43;;;;;;;3.75;1.13;;;;;;;9.50;53.72;99313.91;8002169;28;20049;-68
2021/03/11 09:16:45;;;;;;;4.53;1.38;;;;;;;9.53;54.17;99301.41;8001627;28;20037;-67
2021/03/11 09:20:36;;;;;;;9.40;1.58;;;;;;;9.55;54.16;99309.13;8003433;28;20159;-67
2021/03/11 09:24:27;;;;;;;6.45;1.98;;;;;;;9.56;53.91;99302.91;8005394;28;20108;-67
2021/03/11 09:28:18;;;;;;;6.95;1.17;;;;;;;9.53;53.80;99305.81;7993167;28;20025;-67
2021/03/11 09:32:08;;;;;;;4.40;1.05;;;;;;;9.48;53.88;99290.47;7993766;28;20044;-67
2021/03/11 09:36:07;;;;;;;8.07;1.77;;;;;;;9.58;53.98;99272.13;7991002;28;20096;-67
2021/03/11 09:40:04;;;;;;;5.15;1.80;;;;;;;10.32;55.44;99269.94;7979017;28;20103;-67
2021/03/11 09:43:55;;;;;;;10.60;2.25;;;;;;;10.67;56.17;99259.69;7993688;28;20038;-67
2021/03/11 09:47:46;;;;;;;7.43;1.95;;;;;;;10.86;55.43;99269.38;8003069;28;20045;-67
2021/03/11 09:51:36;;;;;;;8.65;1.90;;;;;;;10.99;55.03;99275.13;7988083;28;20136;-67
2021/03/11 09:55:28;;;;;;;9.55;2.42;;;;;;;11.10;54.65;99267.91;7989862;28;20424;-67
2021/03/11 09:59:20;;;;;;;6.97;2.15;;;;;;;11.15;54.17;99259.56;7994828;28;20033;-67
2021/03/11 10:03:30;;;;;;;14.48;2.75;;;;;;;11.18;53.62;99261.94;8011984;28;20063;-67
2021/03/11 10:07:22;;;;;;;7.72;2.72;;;;;;;11.25;53.56;99270.06;8019950;28;20029;-67
2021/03/11 10:11:18;;;;;;;7.05;2.20;;;;;;;11.30;53.32;99270.47;8018933;28;20039;-67
2021/03/11 10:15:11;;;;;;;10.02;2.63;;;;;;;11.35;53.04;99258.56;8012397;28;20036;-67
2021/03/11 10:19:07;;;;;;;7.95;2.17;;;;;;;11.37;52.85;99259.22;8013793;28;20042;-67
2021/03/11 10:23:15;;;;;;;8.02;2.67;;;;;;;11.38;52.63;99288.97;8013102;28;20471;-67
2021/03/11 10:27:23;;;;;;;6.32;2.00;;;;;;;11.39;52.65;99274.84;8015036;28;20098;-67
2021/03/11 10:31:14;;;;;;;6.78;1.83;;;;;;;11.43;52.22;99253.38;8019064;28;20033;-67
2021/03/11 10:35:07;;;;;;;5.50;1.63;;;;;;;11.46;52.02;99239.94;8017599;28;20033;-67
2021/03/11 10:39:10;;;;;;;6.40;1.48;;;;;;;11.49;51.88;99268.56;8018327;28;20028;-67
2021/03/11 10:43:00;;;;;;;7.93;2.33;;;;;;;11.56;51.90;99255.69;8019451;28;20093;-67
2021/03/11 10:46:51;;;;;;;15.90;2.22;;;;;;;11.63;51.60;99250.69;8020955;28;20095;-67
2021/03/11 10:50:45;;;;;;;7.18;1.67;;;;;;;11.78;51.26;99239.50;8022202;28;20048;-67
2021/03/11 10:54:36;;;;;;;6.35;1.95;;;;;;;11.90;51.01;99263.81;8030065;28;20969;-67
2021/03/11 10:58:27;;;;;;;6.30;2.08;;;;;;;12.00;50.77;99246.16;8011976;28;20111;-67
2021/03/11 11:02:20;;;;;;;8.43;2.03;;;;;;;12.06;50.14;99256.91;8008489;28;20051;-67
2021/03/11 11:06:11;;;;;;;7.72;1.77;;;;;;;12.10;49.89;99272.41;8011994;28;20033;-67
2021/03/11 11:10:04;;;;;;;10.88;2.25;;;;;;;12.16;49.71;99269.16;8012003;28;20025;-67
2021/03/11 11:13:56;;;;;;;6.43;1.95;;;;;;;12.20;49.21;99289.78;8015017;28;20457;-67
2021/03/11 11:17:46;;;;;;;10.80;2.22;;;;;;;12.25;49.14;99284.06;8014600;28;20041;-67
2021/03/11 11:21:37;;;;;;;7.20;2.35;;;;;;;12.25;49.03;99289.34;8017755;28;20620;-67
2021/03/11 11:25:28;;;;;;;7.85;1.95;;;;;;;12.30;48.84;99292.34;8021931;28;20079;-67
2021/03/11 11:29:18;;;;;;;4.63;1.42;;;;;;;12.35;48.81;99292.75;8022177;28;20147;-67
2021/03/11 11:33:09;;;;;;;7.05;1.73;;;;;;;12.39;48.97;99307.25;8022551;28;20625;-67
2021/03/11 11:37:00;;;;;;;9.82;2.53;;;;;;;12.44;48.57;99305.81;8022932;28;20033;-67
2021/03/11 11:40:51;;;;;;;6.05;2.38;;;;;;;12.48;48.16;99307.16;8010952;28;20124;-67
2021/03/11 11:44:43;;;;;;;9.65;2.47;;;;;;;12.53;48.25;99312.81;8009157;28;20049;-67
2021/03/11 11:48:33;;;;;;;7.68;2.17;;;;;;;12.58;48.02;99298.38;8016021;28;20136;-67
2021/03/11 11:52:24;;;;;;;9.88;2.30;;;;;;;12.60;47.90;99314.88;8015449;28;20148;-67
2021/03/11 11:56:15;;;;;;;9.00;2.60;;;;;;;12.61;47.87;99301.53;8017024;28;20063;-67
2021/03/11 12:00:13;;;;;;;7.75;2.25;;;;;;;12.68;47.68;99296.50;8017826;28;20029;-67
2021/03/11 12:04:04;;;;;;;8.73;2.80;;;;;;;12.66;47.86;99288.75;8017505;28;20391;-67
2021/03/11 12:07:54;;;;;;;16.30;3.17;;;;;;;12.67;47.40;99306.22;8007279;28;20029;-67
2021/03/11 12:11:46;;;;;;;11.10;2.67;;;;;;;12.63;47.52;99293.50;8011459;28;20535;-67
2021/03/11 12:15:37;;;;;;;8.57;2.30;;;;;;;12.74;47.51;99295.88;7994074;28;20124;-67
2021/03/11 12:19:28;;;;;;;18.25;3.13;;;;;;;12.81;47.12;99307.44;8016195;28;20034;-67
2021/03/11 12:23:18;;;;;;;9.93;2.47;;;;;;;12.82;46.90;99307.31;8018959;28;20048;-67
2021/03/11 12:27:09;;;;;;;11.25;2.58;;;;;;;12.79;46.69;99299.72;8016940;28;20031;-67
2021/03/11 12:31:02;;;;;;;8.98;3.03;;;;;;;12.83;46.41;99308.16;8020486;28;20033;-67
2021/03/11 12:34:53;;;;;;;8.23;2.35;;;;;;;12.83;46.29;99308.16;8022024;28;20064;-67
2021/03/11 12:38:43;;;;;;;5.35;1.67;;;;;;;12.80;46.46;99305.81;8022924;28;20104;-67
2021/03/11 12:42:34;;;;;;;4.75;1.90;;;;;;;12.79;46.28;99307.63;8000114;28;20025;-67
2021/03/11 12:46:25;;;;;;;8.18;2.05;;;;;;;12.80;46.26;99309.28;7994431;28;20061;-67
2021/03/11 12:50:17;;;;;;;10.18;2.42;;;;;;;12.85;45.99;99307.00;8012744;28;20041;-67
2021/03/11 12:54:08;;;;;;;9.40;2.17;;;;;;;12.86;45.71;99319.19;8002445;28;20040;-67
2021/03/11 12:57:59;;;;;;;16.35;2.47;;;;;;;12.79;45.48;99315.53;8014578;28;20025;-67
2021/03/11 13:01:49;;;;;;;3.08;1.60;;;;;;;12.73;45.59;99324.03;8015173;28;20041;-67
2021/03/11 13:05:40;;;;;;;4.78;1.83;;;;;;;12.72;45.71;99329.47;8017033;28;20036;-67
2021/03/11 13:09:33;;;;;;;6.70;2.03;;;;;;;12.77;45.51;99320.13;8016765;28;20086;-67
2021/03/11 13:13:24;;;;;;;8.75;1.95;;;;;;;12.82;45.54;99317.84;8019865;28;20032;-67
2021/03/11 13:17:14;;;;;;;6.38;1.58;;;;;;;12.84;45.49;99320.34;8018064;28;20033;-67
2021/03/11 13:21:05;;;;;;;6.70;2.28;;;;;;;12.87;45.72;99339.31;8019740;28;20045;-67
2021/03/11 13:24:56;;;;;;;5.57;1.42;;;;;;;12.86;45.90;99327.09;8009879;28;20571;-67
2021/03/11 13:28:46;;;;;;;6.20;1.60;;;;;;;12.88;45.67;99326.97;8005961;28;20037;-67
2021/03/11 13:32:37;;;;;;;9.43;2.42;;;;;;;12.87;45.58;99317.41;8010372;28;20123;-67
2021/03/11 13:36:29;;;;;;;5.05;2.17;;;;;;;12.85;45.05;99332.53;8005659;28;20795;-67
2021/03/11 13:40:19;;;;;;;7.43;1.88;;;;;;;12.83;45.33;99339.75;7981656;28;20078;-67
2021/03/11 13:44:10;;;;;;;5.30;1.75;;;;;;;12.78;45.46;99339.38;8005575;28;20214;-67
2021/03/11 13:48:01;;;;;;;9.23;1.98;;;;;;;12.74;45.54;99333.59;8008670;28;20068;-67
2021/03/11 13:51:51;;;;;;;8.85;1.70;;;;;;;12.79;45.46;99349.78;8016032;28;20091;-67
2021/03/11 13:55:42;;;;;;;7.32;1.58;;;;;;;12.79;45.44;99346.31;8016597;28;20116;-67
2021/03/11 13:59:33;;;;;;;5.38;1.85;;;;;;;12.75;45.28;99351.06;8018059;28;20112;-67
2021/03/11 14:03:24;;;;;;;9.57;2.08;;;;;;;12.69;45.07;99345.56;8023995;28;20467;-67
2021/03/11 14:07:14;;;;;;;7.68;1.35;;;;;;;12.66;44.93;99359.03;8024745;28;20025;-67
2021/03/11 14:11:05;;;;;;;8.20;2.67;;;;;;;12.64;44.78;99374.19;8023730;28;20033;-67
2021/03/11 14:14:55;;;;;;;4.53;1.33;;;;;;;12.63;44.65;99375.16;8025640;28;20576;-67
2021/03/11 14:18:47;;;;;;;7.28;1.50;;;;;;;12.63;44.48;99372.53;7999952;28;20044;-67
2021/03/11 14:22:38;;;;;;;4.53;1.52;;;;;;;12.58;44.31;99365.06;8011989;28;20032;-67
2021/03/11 14:26:29;;;;;;;5.82;1.70;;;;;;;12.55;44.19;99375.88;8018293;28;20029;-67
2021/03/11 14:30:21;;;;;;;5.53;1.52;;;;;;;12.54;44.12;99376.84;8017478;28;20043;-67
2021/03/11 14:34:12;;;;;;;4.80;1.20;;;;;;;12.52;44.06;99389.34;8019659;28;20400;-67
2021/03/11 14:38:03;;;;;;;4.15;1.33;;;;;;;12.49;43.80;99385.19;8020320;28;20025;-67
2021/03/11 14:41:53;;;;;;;4.63;1.15;;;;;;;12.45;44.01;99389.13;8019001;28;20064;-67
2021/03/11 14:45:44;;;;;;;6.90;1.63;;;;;;;12.43;43.92;99392.88;8021264;28;20043;-67
2021/03/11 14:49:35;;;;;;;4.90;1.35;;;;;;;12.44;43.80;99384.81;8008233;28;20036;-67
2021/03/11 14:53:26;;;;;;;6.65;2.20;;;;;;;12.43;43.79;99382.34;8014473;28;20063;-67
2021/03/11 14:57:17;;;;;;;11.35;2.40;;;;;;;12.42;43.56;99385.94;8021460;28;20029;-67
2021/03/11 15:01:09;;;;;;;8.52;2.00;;;;;;;12.42;43.87;99386.78;8008079;28;20405;-67
2021/03/11 15:05:00;;;;;;;5.85;1.85;;;;;;;12.38;43.77;99380.16;8014103;28;20428;-67
2021/03/11 15:08:56;;;;;;;13.85;1.73;;;;;;;12.34;43.67;99386.69;7998713;28;20065;-67
2021/03/11 15:12:46;;;;;;;4.25;1.42;;;;;;;12.28;43.45;99386.44;8012115;28;20041;-67
2021/03/11 15:16:38;;;;;;;5.07;1.30;;;;;;;12.22;43.44;99387.88;8023994;28;20474;-67
2021/03/11 15:20:29;;;;;;;2.83;1.05;;;;;;;12.18;43.43;99391.78;8013725;28;20124;-67
2021/03/11 15:24:20;;;;;;;3.03;1.33;;;;;;;12.21;43.30;99399.38;8010452;28;20029;-67
2021/03/11 15:28:11;;;;;;;4.43;1.20;;;;;;;12.20;43.42;99391.63;8007597;28;20039;-67
2021/03/11 15:32:01;;;;;;;11.02;1.77;;;;;;;12.20;43.17;99399.53;8006348;28;20123;-67
2021/03/11 15:35:52;;;;;;;2.97;0.93;;;;;;;12.15;43.25;99389.44;8014406;28;20041;-67
2021/03/11 15:39:43;;;;;;;3.88;1.00;;;;;;;12.14;43.05;99400.97;8009655;28;20049;-67
2021/03/11 15:43:33;;;;;;;3.40;1.10;;;;;;;12.04;42.90;99389.63;8025508;28;20481;-67
2021/03/11 15:47:24;;;;;;;2.90;1.20;;;;;;;12.04;42.85;99390.47;8019653;28;20032;-67
2021/03/11 15:51:15;;;;;;;3.85;1.33;;;;;;;11.97;42.95;99389.41;8006469;28;20033;-67
2021/03/11 15:55:06;;;;;;;3.42;1.23;;;;;;;11.94;42.77;99405.47;7986005;28;20040;-67
2021/03/11 15:58:57;;;;;;;6.30;1.15;;;;;;;11.86;42.78;99405.34;8012654;28;20109;-67
2021/03/11 16:02:48;;;;;;;1.90;0.93;;;;;;;11.80;42.57;99410.38;8008541;28;20137;-67
2021/03/11 16:06:38;;;;;;;3.28;0.90;;;;;;;11.70;42.60;99410.41;8012964;28;20033;-67
2021/03/11 16:10:29;;;;;;;4.60;1.05;;;;;;;11.66;42.42;99409.03;8018374;28;20648;-67
2021/03/11 16:14:20;;;;;;;1.08;0.65;;;;;;;11.61;42.65;99412.09;8016484;28;20035;-67
2021/03/11 16:18:12;;;;;;;1.50;1.05;;;;;;;11.54;42.51;99416.25;8014898;28;20033;-67
2021/03/11 16:22:03;;;;;;;1.33;0.80;;;;;;;11.53;42.61;99401.44;8019451;28;20107;-67
2021/03/11 16:25:54;;;;;;;2.45;0.95;;;;;;;11.51;42.65;99410.44;8022004;28;20359;-67
2021/03/11 16:29:45;;;;;;;2.95;1.23;;;;;;;11.50;42.63;99412.25;8005334;28;20028;-67
2021/03/11 16:33:35;;;;;;;3.95;1.75;;;;;;;11.50;42.71;99406.16;8008937;28;20044;-67
2021/03/11 16:37:26;;;;;;;2.67;1.20;;;;;;;11.47;42.57;99401.19;8008182;28;20024;-67
2021/03/11 16:41:17;;;;;;;2.53;0.93;;;;;;;11.40;42.46;99429.03;8009971;28;20668;-67
2021/03/11 16:45:08;;;;;;;3.00;0.80;;;;;;;11.32;42.26;99413.91;8011745;28;20541;-67
2021/03/11 16:48:59;;;;;;;3.30;1.38;;;;;;;11.24;42.40;99424.31;7996739;28;20025;-67
2021/03/11 16:52:50;;;;;;;5.60;1.13;;;;;;;11.17;42.24;99423.22;8015836;28;20033;-67
2021/03/11 16:56:41;;;;;;;3.65;1.10;;;;;;;11.13;42.31;99438.44;8015363;28;20624;-67
2021/03/11 17:00:32;;;;;;;3.03;1.10;;;;;;;11.08;42.21;99447.72;8018066;28;20070;-67
2021/03/11 17:04:22;;;;;;;6.38;1.70;;;;;;;11.00;42.13;99434.44;8021638;28;20044;-67
2021/03/11 17:08:13;;;;;;;5.57;1.55;;;;;;;11.02;42.23;99456.16;8021407;28;20033;-67
2021/03/11 17:12:04;;;;;;;2.03;0.98;;;;;;;10.99;42.24;99456.41;8010100;28;20033;-67
2021/03/11 17:15:55;;;;;;;3.33;1.13;;;;;;;10.94;42.77;99454.19;8006015;28;20044;-67
2021/03/11 17:19:47;;;;;;;4.57;1.58;;;;;;;10.94;42.38;99458.66;8002573;28;20037;-68
2021/03/11 17:23:37;;;;;;;3.65;1.30;;;;;;;10.90;42.39;99473.03;8020109;28;20036;-68
2021/03/11 17:27:29;;;;;;;6.90;1.40;;;;;;;10.88;42.54;99472.31;8007046;28;20405;-68
2021/03/11 17:31:19;;;;;;;6.07;1.50;;;;;;;10.86;42.25;99487.41;8025393;28;20037;-68
2021/03/11 17:35:12;;;;;;;5.85;1.30;;;;;;;10.79;42.27;99484.47;8023430;28;20033;-68
2021/03/11 17:39:04;;;;;;;5.80;1.08;;;;;;;10.76;42.39;99490.00;8017153;28;20113;-68
2021/03/11 17:42:54;;;;;;;5.85;1.33;;;;;;;10.70;42.13;99496.63;8031244;28;20370;-69
2021/03/11 17:46:45;;;;;;;4.72;2.03;;;;;;;10.67;42.26;99502.16;8029605;28;20433;-67
2021/03/11 17:50:36;;;;;;;4.72;1.42;;;;;;;10.64;42.31;99493.72;8022875;28;20037;-69
2021/03/11 17:54:27;;;;;;;7.63;1.67;;;;;;;10.58;42.23;99500.31;8042257;28;20067;-69
2021/03/11 17:58:18;;;;;;;5.22;1.58;;;;;;;10.53;42.15;99499.09;8010574;28;20108;-69
2021/03/11 18:02:09;;;;;;;7.28;1.80;;;;;;;10.53;42.37;99530.59;8014575;28;20033;-69
2021/03/11 18:06:00;;;;;;;8.15;1.83;;;;;;;10.49;42.38;99537.00;8017973;28;20032;-70
2021/03/11 18:09:51;;;;;;;4.05;1.58;;;;;;;10.44;42.29;99537.44;8016342;28;20033;-70
2021/03/11 18:13:42;;;;;;;4.25;1.58;;;;;;;10.42;42.46;99541.97;8026169;28;20119;-68
2021/03/11 18:17:32;;;;;;;10.52;1.75;;;;;;;10.35;42.36;99543.47;8017928;28;20044;-69
2021/03/11 18:21:23;;;;;;;6.47;1.38;;;;;;;10.37;42.42;99559.06;8020909;28;20035;-68